Time;durP1;ratioP1;P1;durP2;ratioP2;P2;SDS_P1;SDS_P2;PMS_P1;PMS_P2;Temp;Humidity;BMP_temperature;BMP_pressure;BME280_temperature;BME280_humidity;BME280_pressure;Samples;Min_cycle;Max_cycle;Signal;HPM_P1;HPM_P2
2022/12/09 00:00:36;;;;;;;92.50;30.00;;;;;;;;;;103447;1306;22508;-81
2022/12/09 00:03:15;;;;;;;101.70;30.60;;;;;;;;;;103312;1306;22459;-78
2022/12/09 00:05:42;;;;;;;67.20;24.30;;;;;;;;;;103288;1306;22720;-80
2022/12/09 00:08:08;;;;;;;63.10;21.30;;;;;;;;;;103472;1306;25387;-77
2022/12/09 00:10:35;;;;;;;47.60;19.10;;;;;;;;;;103454;1294;22717;-78
2022/12/09 00:13:01;;;;;;;48.70;15.90;;;;;;;;;;103289;1307;22508;-82
2022/12/09 00:15:28;;;;;;;43.90;15.30;;;;;;;;;;103301;1306;26464;-80
2022/12/09 00:17:55;;;;;;;40.80;17.00;;;;;;;;;;103218;1307;22463;-79
2022/12/09 00:20:21;;;;;;;36.80;15.30;;;;;;;;;;103456;1298;22721;-83
2022/12/09 00:22:48;;;;;;;31.20;13.80;;;;;;;;;;103450;1306;23866;-78
2022/12/09 00:25:15;;;;;;;31.70;13.30;;;;;;;;;;103425;1306;22470;-78
2022/12/09 00:27:41;;;;;;;32.30;13.70;;;;;;;;;;103407;1306;22517;-84
2022/12/09 00:30:08;;;;;;;33.80;13.20;;;;;;;;;;103298;1306;22475;-83
2022/12/09 00:32:35;;;;;;;28.20;12.70;;;;;;;;;;103424;1307;22478;-78
2022/12/09 00:35:03;;;;;;;28.00;11.50;;;;;;;;;;103478;1292;25356;-80
2022/12/09 00:37:30;;;;;;;27.10;11.30;;;;;;;;;;103428;1306;25300;-77
2022/12/09 00:39:58;;;;;;;32.50;12.20;;;;;;;;;;103392;1306;22471;-80
2022/12/09 00:42:25;;;;;;;25.40;11.40;;;;;;;;;;103405;1306;25349;-80
2022/12/09 00:44:53;;;;;;;24.00;10.40;;;;;;;;;;103444;1299;22489;-77
2022/12/09 00:47:19;;;;;;;25.10;10.50;;;;;;;;;;103426;1306;25736;-78
2022/12/09 00:49:46;;;;;;;25.20;10.40;;;;;;;;;;103319;1306;25706;-80
2022/12/09 00:52:12;;;;;;;22.70;10.00;;;;;;;;;;103421;1301;24324;-77
2022/12/09 00:54:39;;;;;;;23.30;10.00;;;;;;;;;;103285;1298;23007;-83
2022/12/09 00:57:07;;;;;;;23.50;11.30;;;;;;;;;;103204;1306;24744;-79
2022/12/09 00:59:34;;;;;;;23.40;9.60;;;;;;;;;;103451;1306;22458;-80
2022/12/09 01:02:00;;;;;;;24.00;9.70;;;;;;;;;;103393;1306;23090;-83
2022/12/09 01:04:27;;;;;;;24.10;10.90;;;;;;;;;;103448;1306;22631;-80
2022/12/09 01:06:53;;;;;;;24.60;10.70;;;;;;;;;;103455;1306;22515;-78
2022/12/09 01:09:21;;;;;;;20.30;10.40;;;;;;;;;;103351;1293;22464;-81
2022/12/09 01:11:48;;;;;;;19.70;9.40;;;;;;;;;;103379;1306;23710;-78
2022/12/09 01:14:15;;;;;;;23.40;11.00;;;;;;;;;;103008;1306;25557;-79
2022/12/09 01:16:42;;;;;;;24.70;11.00;;;;;;;;;;103346;1306;22712;-83
2022/12/09 01:19:10;;;;;;;25.80;10.40;;;;;;;;;;103329;1307;24041;-80
2022/12/09 01:21:37;;;;;;;22.40;11.20;;;;;;;;;;103249;1306;24317;-80
2022/12/09 01:24:07;;;;;;;24.10;11.20;;;;;;;;;;103399;1306;24283;-80
2022/12/09 01:26:34;;;;;;;24.40;11.00;;;;;;;;;;103349;1301;22535;-84
2022/12/09 01:29:02;;;;;;;24.00;11.70;;;;;;;;;;103451;1306;24241;-81
2022/12/09 01:31:28;;;;;;;23.30;10.90;;;;;;;;;;103415;1306;24454;-78
2022/12/09 01:33:56;;;;;;;28.00;12.80;;;;;;;;;;103427;1306;22513;-80
2022/12/09 01:36:26;;;;;;;29.50;13.20;;;;;;;;;;103531;1306;22465;-79
2022/12/09 01:38:53;;;;;;;24.90;12.10;;;;;;;;;;103251;1301;25259;-82
2022/12/09 01:41:20;;;;;;;24.40;11.90;;;;;;;;;;103481;1301;24320;-82
2022/12/09 01:44:06;;;;;;;27.80;12.60;;;;;;;;;;103369;1302;22484;-78
2022/12/09 01:46:33;;;;;;;25.90;12.30;;;;;;;;;;103473;1299;22724;-83
2022/12/09 01:49:00;;;;;;;28.60;12.80;;;;;;;;;;103415;1305;22447;-80
2022/12/09 01:51:27;;;;;;;29.40;12.70;;;;;;;;;;103327;1306;22544;-83
2022/12/09 01:53:55;;;;;;;24.80;11.50;;;;;;;;;;103469;1306;25531;-81
2022/12/09 01:56:25;;;;;;;25.50;11.50;;;;;;;;;;103475;1306;24236;-82
2022/12/09 01:58:53;;;;;;;31.40;13.70;;;;;;;;;;103427;1306;23806;-80
2022/12/09 02:01:20;;;;;;;24.80;12.20;;;;;;;;;;103420;1302;22719;-84
2022/12/09 02:03:48;;;;;;;31.60;15.90;;;;;;;;;;103268;1304;22529;-79
2022/12/09 02:06:15;;;;;;;29.60;13.60;;;;;;;;;;103564;1300;24391;-80
2022/12/09 02:08:42;;;;;;;28.00;13.10;;;;;;;;;;103340;1306;22474;-80
2022/12/09 02:11:27;;;;;;;30.00;12.80;;;;;;;;;;103391;1306;24465;-80
2022/12/09 02:14:06;;;;;;;25.50;12.10;;;;;;;;;;103400;1306;22449;-79
2022/12/09 02:16:36;;;;;;;28.30;12.20;;;;;;;;;;103489;1306;22473;-80
2022/12/09 02:19:24;;;;;;;27.50;12.00;;;;;;;;;;103486;1306;24176;-77
2022/12/09 02:21:57;;;;;;;27.80;12.70;;;;;;;;;;103443;1301;22480;-78
2022/12/09 02:24:26;;;;;;;31.60;14.60;;;;;;;;;;103443;1306;23876;-80
2022/12/09 02:26:55;;;;;;;31.10;13.60;;;;;;;;;;103521;1306;22477;-82
2022/12/09 02:29:44;;;;;;;33.30;14.60;;;;;;;;;;103366;1306;23030;-84
2022/12/09 02:32:14;;;;;;;30.10;14.00;;;;;;;;;;103409;1306;22471;-79
2022/12/09 02:34:45;;;;;;;38.40;16.40;;;;;;;;;;103156;1306;22473;-81
2022/12/09 02:37:29;;;;;;;30.30;13.80;;;;;;;;;;103317;1306;24218;-81
2022/12/09 02:39:59;;;;;;;34.70;15.30;;;;;;;;;;103344;1306;24847;-79
2022/12/09 02:42:27;;;;;;;33.80;14.80;;;;;;;;;;103450;1306;22472;-82
2022/12/09 02:44:55;;;;;;;30.00;13.60;;;;;;;;;;103477;1307;22512;-82
2022/12/09 02:47:24;;;;;;;29.80;14.20;;;;;;;;;;103594;1306;24362;-82
2022/12/09 02:49:53;;;;;;;29.40;14.60;;;;;;;;;;103461;1307;22467;-78
2022/12/09 02:52:21;;;;;;;31.70;15.00;;;;;;;;;;103431;1307;22533;-81
2022/12/09 02:54:49;;;;;;;33.60;15.00;;;;;;;;;;103587;1307;24318;-83
2022/12/09 02:57:19;;;;;;;33.60;15.10;;;;;;;;;;103441;1306;22466;-80
2022/12/09 02:59:45;;;;;;;32.80;16.00;;;;;;;;;;103286;1299;24296;-82
2022/12/09 03:02:17;;;;;;;32.30;14.70;;;;;;;;;;103273;1304;22992;-78
2022/12/09 03:04:47;;;;;;;31.60;15.40;;;;;;;;;;103309;1300;22430;-82
2022/12/09 03:07:21;;;;;;;29.70;14.30;;;;;;;;;;103287;1306;22513;-82
2022/12/09 03:09:51;;;;;;;34.40;16.10;;;;;;;;;;103439;1301;25345;-81
2022/12/09 03:12:19;;;;;;;32.90;16.20;;;;;;;;;;103398;1307;23248;-78
2022/12/09 03:14:48;;;;;;;34.00;15.60;;;;;;;;;;103478;1300;22465;-83
2022/12/09 03:17:18;;;;;;;30.90;15.20;;;;;;;;;;103471;1306;25352;-82
2022/12/09 03:19:45;;;;;;;34.10;15.40;;;;;;;;;;103454;1307;24310;-81
2022/12/09 03:22:14;;;;;;;33.00;15.70;;;;;;;;;;103469;1307;22546;-79
2022/12/09 03:24:44;;;;;;;29.00;14.80;;;;;;;;;;103404;1306;24400;-84
2022/12/09 03:27:14;;;;;;;32.20;14.20;;;;;;;;;;103238;1306;24251;-80
2022/12/09 03:29:46;;;;;;;36.60;16.90;;;;;;;;;;103306;1306;22428;-82
2022/12/09 03:32:14;;;;;;;35.00;16.10;;;;;;;;;;103432;1307;25266;-76
2022/12/09 03:34:43;;;;;;;58.80;20.00;;;;;;;;;;103437;1301;26056;-78
2022/12/09 03:37:10;;;;;;;60.00;20.80;;;;;;;;;;103336;1306;25336;-78
2022/12/09 03:39:39;;;;;;;56.10;21.00;;;;;;;;;;103501;1306;22471;-81
2022/12/09 03:42:09;;;;;;;53.00;21.60;;;;;;;;;;103373;1306;24344;-83
2022/12/09 03:44:42;;;;;;;53.70;20.00;;;;;;;;;;103438;1306;24201;-80
2022/12/09 03:47:09;;;;;;;54.60;20.60;;;;;;;;;;103437;1291;25312;-79
2022/12/09 03:49:37;;;;;;;50.10;19.00;;;;;;;;;;103269;1301;24317;-82
2022/12/09 03:52:09;;;;;;;49.30;18.30;;;;;;;;;;103291;1309;22470;-81
2022/12/09 03:54:43;;;;;;;46.40;18.40;;;;;;;;;;103331;1309;21720;-83
2022/12/09 03:57:15;;;;;;;49.30;18.80;;;;;;;;;;103225;1309;22472;-83
2022/12/09 03:59:44;;;;;;;48.00;19.60;;;;;;;;;;103326;1309;22651;-78
2022/12/09 04:02:10;;;;;;;37.50;17.40;;;;;;;;;;103415;1307;22467;-81
2022/12/09 04:04:38;;;;;;;38.00;16.20;;;;;;;;;;103379;1299;23878;-83
2022/12/09 04:07:06;;;;;;;38.10;16.40;;;;;;;;;;103252;1306;24260;-81
2022/12/09 04:09:32;;;;;;;38.90;18.60;;;;;;;;;;103314;1300;22489;-81
2022/12/09 04:11:59;;;;;;;34.60;14.30;;;;;;;;;;103251;1306;22481;-78
2022/12/09 04:14:26;;;;;;;36.20;16.80;;;;;;;;;;103498;1306;22474;-82
2022/12/09 04:16:53;;;;;;;39.50;18.20;;;;;;;;;;103187;1306;24329;-83
2022/12/09 04:19:20;;;;;;;42.30;17.10;;;;;;;;;;103456;1307;25353;-78
2022/12/09 04:21:46;;;;;;;32.20;15.50;;;;;;;;;;103455;1305;22467;-83
2022/12/09 04:24:13;;;;;;;37.60;17.00;;;;;;;;;;103357;1306;22474;-81
2022/12/09 04:26:40;;;;;;;40.50;16.40;;;;;;;;;;103275;1303;22740;-78
2022/12/09 04:29:08;;;;;;;35.90;16.30;;;;;;;;;;103497;1291;24442;-82
2022/12/09 04:31:34;;;;;;;36.20;17.20;;;;;;;;;;103396;1306;22594;-81
2022/12/09 04:34:02;;;;;;;34.00;16.20;;;;;;;;;;103299;1306;25327;-80
2022/12/09 04:36:30;;;;;;;37.70;16.40;;;;;;;;;;103250;1306;25349;-76
2022/12/09 04:38:56;;;;;;;32.00;16.40;;;;;;;;;;103581;1306;24265;-80
2022/12/09 04:41:23;;;;;;;36.80;16.40;;;;;;;;;;103475;1306;22529;-78
2022/12/09 04:43:50;;;;;;;41.00;19.50;;;;;;;;;;103525;1306;25555;-78
2022/12/09 04:46:17;;;;;;;60.80;28.70;;;;;;;;;;103445;1306;22739;-79
2022/12/09 04:48:44;;;;;;;66.90;31.10;;;;;;;;;;103034;1306;24234;-78
2022/12/09 04:51:12;;;;;;;64.90;30.10;;;;;;;;;;103405;1306;22572;-80
2022/12/09 04:53:39;;;;;;;57.60;26.30;;;;;;;;;;103471;1306;22929;-82
2022/12/09 04:56:06;;;;;;;48.90;21.70;;;;;;;;;;103328;1307;22482;-81
2022/12/09 04:58:33;;;;;;;46.90;21.70;;;;;;;;;;103292;1306;22736;-81
2022/12/09 05:01:07;;;;;;;49.90;20.80;;;;;;;;;;103225;1306;22613;-81
2022/12/09 05:03:35;;;;;;;38.30;16.70;;;;;;;;;;103084;1306;25262;-82
2022/12/09 05:06:04;;;;;;;39.90;17.40;;;;;;;;;;103448;1281;24261;-80
2022/12/09 05:08:30;;;;;;;38.70;16.00;;;;;;;;;;103224;1306;22450;-79
2022/12/09 05:10:57;;;;;;;37.60;16.50;;;;;;;;;;103506;1306;25284;-81
2022/12/09 05:13:26;;;;;;;35.40;15.20;;;;;;;;;;103406;1306;22473;-80
2022/12/09 05:15:57;;;;;;;34.90;14.90;;;;;;;;;;103461;1306;22460;-77
2022/12/09 05:18:24;;;;;;;36.40;15.30;;;;;;;;;;103472;1292;24193;-78
2022/12/09 05:20:51;;;;;;;32.80;14.00;;;;;;;;;;103300;1307;24259;-76
2022/12/09 05:23:17;;;;;;;28.00;12.60;;;;;;;;;;103291;1306;25144;-82
2022/12/09 05:25:44;;;;;;;29.70;12.60;;;;;;;;;;103072;1306;22493;-80
2022/12/09 05:28:10;;;;;;;30.60;13.30;;;;;;;;;;103166;1304;22738;-82
2022/12/09 05:30:37;;;;;;;30.20;13.00;;;;;;;;;;103352;1306;25541;-82
2022/12/09 05:33:04;;;;;;;34.30;13.90;;;;;;;;;;103247;1307;23211;-80
2022/12/09 05:35:31;;;;;;;29.70;13.30;;;;;;;;;;103276;1304;22636;-77
2022/12/09 05:37:58;;;;;;;26.90;11.40;;;;;;;;;;103308;1306;22484;-82
2022/12/09 05:40:25;;;;;;;26.20;11.90;;;;;;;;;;103452;1306;22551;-84
2022/12/09 05:42:51;;;;;;;29.80;13.10;;;;;;;;;;103062;1306;26559;-79
2022/12/09 05:45:18;;;;;;;27.40;13.50;;;;;;;;;;103249;1307;22467;-83
2022/12/09 05:47:45;;;;;;;27.80;12.50;;;;;;;;;;103308;1307;22469;-81
2022/12/09 05:50:11;;;;;;;29.00;12.70;;;;;;;;;;103297;1305;24240;-77
2022/12/09 05:52:38;;;;;;;25.40;11.60;;;;;;;;;;103438;1300;25272;-81
2022/12/09 05:55:06;;;;;;;29.30;12.70;;;;;;;;;;103504;1306;23067;-82
2022/12/09 05:57:33;;;;;;;30.60;13.70;;;;;;;;;;103351;1306;22421;-78
2022/12/09 05:59:59;;;;;;;26.90;13.10;;;;;;;;;;103156;1295;25249;-81
2022/12/09 06:02:26;;;;;;;28.40;14.20;;;;;;;;;;103342;1284;22482;-81
2022/12/09 06:04:54;;;;;;;31.50;14.20;;;;;;;;;;103239;1288;22469;-80
2022/12/09 06:07:24;;;;;;;33.20;15.50;;;;;;;;;;103438;1282;22846;-77
2022/12/09 06:09:51;;;;;;;29.50;14.30;;;;;;;;;;103554;1305;25364;-78
2022/12/09 06:12:17;;;;;;;28.80;12.90;;;;;;;;;;103604;1282;24215;-83
2022/12/09 06:14:44;;;;;;;33.00;13.90;;;;;;;;;;103376;1295;22563;-81
2022/12/09 06:17:11;;;;;;;32.70;15.30;;;;;;;;;;103511;1292;25341;-80
2022/12/09 06:19:38;;;;;;;38.90;15.40;;;;;;;;;;103338;1295;25394;-81
2022/12/09 06:22:05;;;;;;;31.80;15.00;;;;;;;;;;103326;1292;22109;-78
2022/12/09 06:24:35;;;;;;;33.20;15.30;;;;;;;;;;103471;1301;22471;-81
2022/12/09 06:27:02;;;;;;;34.30;14.60;;;;;;;;;;103433;1307;24089;-78
2022/12/09 06:29:28;;;;;;;36.20;14.90;;;;;;;;;;103345;1307;22472;-77
2022/12/09 06:31:55;;;;;;;34.00;15.00;;;;;;;;;;103451;1306;22552;-80
2022/12/09 06:34:22;;;;;;;72.30;30.00;;;;;;;;;;103414;1291;24324;-77
2022/12/09 06:36:49;;;;;;;55.10;25.70;;;;;;;;;;103342;1306;22628;-81
2022/12/09 06:39:15;;;;;;;54.80;25.40;;;;;;;;;;103307;1306;24274;-81
2022/12/09 06:41:42;;;;;;;76.30;30.40;;;;;;;;;;103137;1307;25665;-79
2022/12/09 06:44:12;;;;;;;62.50;26.90;;;;;;;;;;103246;1306;23883;-82
2022/12/09 06:46:38;;;;;;;68.60;29.40;;;;;;;;;;103261;1306;22442;-82
2022/12/09 06:49:05;;;;;;;67.00;27.80;;;;;;;;;;103274;1288;22563;-83
2022/12/09 06:51:33;;;;;;;53.70;25.00;;;;;;;;;;103439;1307;22479;-82
2022/12/09 06:54:00;;;;;;;52.90;23.40;;;;;;;;;;103532;1294;25251;-77
2022/12/09 06:56:26;;;;;;;48.80;21.50;;;;;;;;;;103478;1307;24346;-81
2022/12/09 06:58:53;;;;;;;44.60;18.80;;;;;;;;;;103695;1307;24282;-79
2022/12/09 07:01:21;;;;;;;44.90;19.60;;;;;;;;;;103342;1306;22524;-83
2022/12/09 07:03:49;;;;;;;54.10;22.20;;;;;;;;;;103452;1306;24347;-77
2022/12/09 07:06:16;;;;;;;76.60;26.40;;;;;;;;;;103439;1301;22462;-81
2022/12/09 07:08:43;;;;;;;75.00;26.50;;;;;;;;;;103270;1300;24465;-78
2022/12/09 07:11:09;;;;;;;79.10;30.30;;;;;;;;;;103431;1301;22726;-79
2022/12/09 07:13:36;;;;;;;75.90;31.40;;;;;;;;;;103414;1307;22487;-80
2022/12/09 07:16:03;;;;;;;79.90;31.10;;;;;;;;;;103620;1306;22470;-79
2022/12/09 07:18:29;;;;;;;77.70;28.80;;;;;;;;;;103521;1306;22492;-84
2022/12/09 07:20:56;;;;;;;80.10;29.50;;;;;;;;;;103232;1306;23164;-82
2022/12/09 07:23:23;;;;;;;72.20;30.00;;;;;;;;;;103409;1307;24669;-83
2022/12/09 07:25:56;;;;;;;73.00;29.90;;;;;;;;;;103398;1306;22461;-80
2022/12/09 07:28:23;;;;;;;161.60;50.00;;;;;;;;;;103254;1306;22468;-84
2022/12/09 07:30:49;;;;;;;194.40;59.80;;;;;;;;;;103260;1307;22679;-81
2022/12/09 07:33:16;;;;;;;203.40;64.20;;;;;;;;;;103451;1306;24221;-81
2022/12/09 07:35:43;;;;;;;174.90;57.60;;;;;;;;;;103347;1307;25310;-78
2022/12/09 07:38:09;;;;;;;156.90;51.10;;;;;;;;;;103441;1307;22456;-84
2022/12/09 07:40:39;;;;;;;105.00;38.70;;;;;;;;;;103321;1301;22463;-78
2022/12/09 07:43:06;;;;;;;100.00;37.30;;;;;;;;;;103380;1307;22466;-81
2022/12/09 07:45:33;;;;;;;81.10;30.80;;;;;;;;;;103514;1307;24268;-77
2022/12/09 07:48:00;;;;;;;66.80;26.50;;;;;;;;;;103451;1306;24226;-82
2022/12/09 07:50:26;;;;;;;57.90;25.50;;;;;;;;;;102302;1307;1471034;-82
2022/12/09 07:52:53;;;;;;;53.30;22.00;;;;;;;;;;103434;1307;25332;-78
2022/12/09 07:55:20;;;;;;;51.90;21.40;;;;;;;;;;103434;1307;22536;-83
2022/12/09 07:57:46;;;;;;;54.60;22.80;;;;;;;;;;103452;1302;22473;-83
2022/12/09 08:00:13;;;;;;;49.80;21.00;;;;;;;;;;103431;1307;22427;-80
2022/12/09 08:02:40;;;;;;;49.00;20.70;;;;;;;;;;103390;1306;24257;-83
2022/12/09 08:05:07;;;;;;;51.50;23.30;;;;;;;;;;103276;1306;22477;-82
2022/12/09 08:07:34;;;;;;;51.50;23.80;;;;;;;;;;103341;1307;22479;-77
2022/12/09 08:10:01;;;;;;;57.10;24.50;;;;;;;;;;103523;1307;25321;-78
2022/12/09 08:12:28;;;;;;;155.60;50.20;;;;;;;;;;103485;1306;22470;-78
2022/12/09 08:14:54;;;;;;;177.00;55.90;;;;;;;;;;103365;1305;24310;-79
2022/12/09 08:17:23;;;;;;;99.60;39.80;;;;;;;;;;103279;1297;22467;-84
2022/12/09 08:19:50;;;;;;;77.30;28.70;;;;;;;;;;103485;1294;25322;-81
2022/12/09 08:22:17;;;;;;;74.40;26.40;;;;;;;;;;103471;1306;25336;-81
2022/12/09 08:24:44;;;;;;;69.20;32.50;;;;;;;;;;103373;1310;24851;-79
2022/12/09 08:27:11;;;;;;;73.60;31.30;;;;;;;;;;103390;1306;25275;-81
2022/12/09 08:29:37;;;;;;;62.40;30.80;;;;;;;;;;103429;1306;24313;-84
2022/12/09 08:32:04;;;;;;;51.70;24.80;;;;;;;;;;103394;1307;22475;-80
2022/12/09 08:34:31;;;;;;;52.90;25.90;;;;;;;;;;103565;1299;24384;-83
2022/12/09 08:36:58;;;;;;;56.40;23.90;;;;;;;;;;103291;1294;22485;-81
2022/12/09 08:39:25;;;;;;;52.50;22.70;;;;;;;;;;103234;1307;25537;-80
2022/12/09 08:41:51;;;;;;;49.20;23.50;;;;;;;;;;103286;1309;22472;-83
2022/12/09 08:44:19;;;;;;;56.10;26.00;;;;;;;;;;103223;1307;25207;-80
2022/12/09 08:46:47;;;;;;;60.90;26.40;;;;;;;;;;103633;1306;24301;-80
2022/12/09 08:49:18;;;;;;;56.10;25.30;;;;;;;;;;103536;1306;24235;-80
2022/12/09 08:51:45;;;;;;;54.50;26.40;;;;;;;;;;103534;1306;24268;-80
2022/12/09 08:54:12;;;;;;;55.10;23.90;;;;;;;;;;103548;1298;22852;-84
2022/12/09 08:56:42;;;;;;;55.30;25.60;;;;;;;;;;103224;1307;22542;-84
2022/12/09 08:59:09;;;;;;;57.60;25.90;;;;;;;;;;103449;1306;24180;-82
2022/12/09 09:01:35;;;;;;;59.90;26.30;;;;;;;;;;103379;1306;26521;-81
2022/12/09 09:04:04;;;;;;;57.90;25.80;;;;;;;;;;103485;1313;22938;-82
2022/12/09 09:06:30;;;;;;;69.80;28.40;;;;;;;;;;103458;1306;22477;-86
2022/12/09 09:08:57;;;;;;;61.30;25.60;;;;;;;;;;103298;1301;25350;-82
2022/12/09 09:11:24;;;;;;;49.90;20.40;;;;;;;;;;103421;1310;26586;-83
2022/12/09 09:13:51;;;;;;;52.40;23.60;;;;;;;;;;103387;1306;24228;-87
2022/12/09 09:16:19;;;;;;;60.10;25.40;;;;;;;;;;103271;1307;24959;-80
2022/12/09 09:18:45;;;;;;;70.40;28.10;;;;;;;;;;103400;1307;25248;-79
2022/12/09 09:21:13;;;;;;;92.60;33.10;;;;;;;;;;103281;1299;22493;-82
2022/12/09 09:23:40;;;;;;;82.50;31.00;;;;;;;;;;103558;1307;24311;-84
2022/12/09 09:26:33;;;;;;;64.10;27.00;;;;;;;;;;103528;1298;23060;-82
2022/12/09 09:29:00;;;;;;;67.60;26.80;;;;;;;;;;103430;1307;22476;-84
2022/12/09 09:31:27;;;;;;;55.40;24.00;;;;;;;;;;103486;1306;23887;-81
2022/12/09 09:33:53;;;;;;;50.20;22.00;;;;;;;;;;103310;1300;24268;-79
2022/12/09 09:36:22;;;;;;;46.40;22.20;;;;;;;;;;103667;1288;22464;-85
2022/12/09 09:38:50;;;;;;;44.30;19.30;;;;;;;;;;103523;1306;21880;-86
2022/12/09 09:41:37;;;;;;;36.50;17.00;;;;;;;;;;103497;1306;25591;-80
2022/12/09 09:44:10;;;;;;;39.80;18.20;;;;;;;;;;103394;1312;24023;-80
2022/12/09 09:46:41;;;;;;;43.10;18.80;;;;;;;;;;103549;1309;24242;-84
2022/12/09 09:49:11;;;;;;;43.00;17.90;;;;;;;;;;103480;1309;22671;-82
2022/12/09 09:51:38;;;;;;;48.80;20.40;;;;;;;;;;103490;1306;24016;-84
2022/12/09 09:54:07;;;;;;;45.40;21.00;;;;;;;;;;103365;1310;25333;-79
2022/12/09 09:56:33;;;;;;;42.90;19.60;;;;;;;;;;103512;1294;22487;-80
2022/12/09 09:59:09;;;;;;;44.40;20.50;;;;;;;;;;103392;1306;24298;-86
2022/12/09 10:01:36;;;;;;;33.60;16.80;;;;;;;;;;103453;1302;22459;-80
2022/12/09 10:04:12;;;;;;;36.40;16.70;;;;;;;;;;103460;1307;25334;-81
2022/12/09 10:07:01;;;;;;;31.90;15.20;;;;;;;;;;103419;1306;23877;-83
2022/12/09 10:09:48;;;;;;;41.30;19.30;;;;;;;;;;103503;1309;25293;-81
2022/12/09 10:12:19;;;;;;;38.40;18.30;;;;;;;;;;103605;1312;24303;-80
2022/12/09 10:14:57;;;;;;;46.20;20.60;;;;;;;;;;103228;1307;25391;-81
2022/12/09 10:17:29;;;;;;;47.70;21.10;;;;;;;;;;103424;1313;22482;-81
2022/12/09 10:20:08;;;;;;;43.90;21.00;;;;;;;;;;103301;1310;22478;-81
2022/12/09 10:22:47;;;;;;;41.90;20.00;;;;;;;;;;103616;1310;24228;-82
2022/12/09 10:25:21;;;;;;;51.50;24.20;;;;;;;;;;103441;1307;25291;-80
2022/12/09 10:27:51;;;;;;;41.70;20.20;;;;;;;;;;103572;1306;22451;-84
2022/12/09 10:30:18;;;;;;;45.80;21.20;;;;;;;;;;103488;1300;22561;-84
2022/12/09 10:32:46;;;;;;;39.30;19.80;;;;;;;;;;103474;1307;22719;-81
2022/12/09 10:35:15;;;;;;;41.50;21.10;;;;;;;;;;103503;1310;22468;-81
2022/12/09 10:37:42;;;;;;;43.90;21.70;;;;;;;;;;103497;1307;24223;-83
2022/12/09 10:40:09;;;;;;;34.90;16.40;;;;;;;;;;103196;1310;25364;-81
2022/12/09 10:45:32;;;;;;;31.10;15.00;;;;;;;;;;103485;1306;25219;-81
2022/12/09 10:47:59;;;;;;;30.40;15.20;;;;;;;;;;103444;1312;24338;-80
2022/12/09 10:50:28;;;;;;;34.90;16.80;;;;;;;;;;103475;1310;24232;-79
2022/12/09 10:52:57;;;;;;;37.20;17.10;;;;;;;;;;103409;1312;24259;-79
2022/12/09 10:55:28;;;;;;;46.10;25.20;;;;;;;;;;103517;1310;24722;-82
2022/12/09 10:58:08;;;;;;;28.00;14.80;;;;;;;;;;103452;1291;22473;-79
2022/12/09 11:00:35;;;;;;;31.40;14.60;;;;;;;;;;103566;1304;22417;-78
2022/12/09 11:03:01;;;;;;;32.00;15.40;;;;;;;;;;103460;1313;25251;-82
2022/12/09 11:05:30;;;;;;;27.20;14.30;;;;;;;;;;103384;1308;25328;-81
2022/12/09 11:07:57;;;;;;;30.80;15.40;;;;;;;;;;103470;1309;23204;-79
2022/12/09 11:10:25;;;;;;;28.20;14.20;;;;;;;;;;103468;1312;23508;-83
2022/12/09 11:12:54;;;;;;;27.80;14.00;;;;;;;;;;103594;1308;23891;-83
2022/12/09 11:15:26;;;;;;;36.30;15.90;;;;;;;;;;103507;1307;25552;-82
2022/12/09 11:17:55;;;;;;;26.80;13.80;;;;;;;;;;103392;1308;24409;-79
2022/12/09 11:20:24;;;;;;;34.10;15.30;;;;;;;;;;103334;1313;22597;-83
2022/12/09 11:23:01;;;;;;;33.30;15.30;;;;;;;;;;103485;1307;25681;-82
2022/12/09 11:25:32;;;;;;;32.80;15.80;;;;;;;;;;103486;1305;24314;-79
2022/12/09 11:28:21;;;;;;;34.70;17.00;;;;;;;;;;103524;1309;22595;-80
2022/12/09 11:30:55;;;;;;;31.30;15.60;;;;;;;;;;103531;1310;24308;-82
2022/12/09 11:33:28;;;;;;;29.20;14.90;;;;;;;;;;103421;1310;22454;-81
2022/12/09 11:36:00;;;;;;;29.50;14.90;;;;;;;;;;103497;1299;25487;-79
2022/12/09 11:38:41;;;;;;;44.80;17.20;;;;;;;;;;103522;1313;25941;-80
2022/12/09 11:41:08;;;;;;;47.30;18.80;;;;;;;;;;103544;1313;22593;-77
2022/12/09 11:43:53;;;;;;;44.80;18.40;;;;;;;;;;103431;1312;22530;-78
2022/12/09 11:46:24;;;;;;;42.10;19.20;;;;;;;;;;103516;1307;24749;-77
2022/12/09 11:48:54;;;;;;;35.80;17.00;;;;;;;;;;103614;1307;24237;-84
2022/12/09 11:51:22;;;;;;;32.70;15.10;;;;;;;;;;106892;1302;22071;-77
2022/12/09 11:53:50;;;;;;;49.30;25.80;;;;;;;;;;106930;1307;22048;-77
2022/12/09 11:56:19;;;;;;;47.30;25.00;;;;;;;;;;107098;1300;22035;-77
2022/12/09 11:58:54;;;;;;;44.60;20.70;;;;;;;;;;106915;1307;22001;-77
2022/12/09 12:01:40;;;;;;;41.70;19.80;;;;;;;;;;106930;1307;22083;-78
2022/12/09 12:04:09;;;;;;;34.20;16.70;;;;;;;;;;106951;1307;22813;-77
2022/12/09 12:06:45;;;;;;;39.20;19.70;;;;;;;;;;106867;1307;22009;-77
2022/12/09 12:09:11;;;;;;;38.90;21.90;;;;;;;;;;106933;1306;22082;-77
2022/12/09 12:11:45;;;;;;;34.10;17.40;;;;;;;;;;106917;1305;21812;-77
2022/12/09 12:14:15;;;;;;;35.20;18.90;;;;;;;;;;106739;1307;22096;-77
2022/12/09 12:16:42;;;;;;;33.20;16.40;;;;;;;;;;106920;1307;22079;-77
2022/12/09 12:19:08;;;;;;;31.20;16.00;;;;;;;;;;106962;1303;22083;-77
2022/12/09 12:21:54;;;;;;;30.50;15.20;;;;;;;;;;107294;1289;22103;-77
2022/12/09 12:24:25;;;;;;;35.80;17.00;;;;;;;;;;107304;1283;22256;-77
2022/12/09 12:27:10;;;;;;;36.90;16.90;;;;;;;;;;106887;1307;21998;-77
2022/12/09 12:29:40;;;;;;;39.30;16.60;;;;;;;;;;106938;1307;21958;-77
2022/12/09 12:32:16;;;;;;;38.10;15.60;;;;;;;;;;106889;1307;22694;-77
2022/12/09 12:34:43;;;;;;;32.00;14.70;;;;;;;;;;106898;1307;22782;-77
2022/12/09 12:37:28;;;;;;;31.90;13.90;;;;;;;;;;106883;1307;22175;-77
2022/12/09 12:39:54;;;;;;;28.60;14.80;;;;;;;;;;106913;1306;22481;-77
2022/12/09 12:42:27;;;;;;;31.20;15.10;;;;;;;;;;106941;1306;22746;-77
2022/12/09 12:47:54;;;;;;;33.70;16.80;;;;;;;;;;107258;1300;22054;-77
2022/12/09 12:50:41;;;;;;;53.30;27.80;;;;;;;;;;106868;1307;22082;-77
2022/12/09 12:53:10;;;;;;;36.90;17.50;;;;;;;;;;106849;1307;22140;-77
2022/12/09 12:55:43;;;;;;;33.40;15.70;;;;;;;;;;106859;1307;22120;-77
2022/12/09 12:58:29;;;;;;;31.20;15.30;;;;;;;;;;106845;1308;22076;-78
2022/12/09 13:01:01;;;;;;;35.30;17.20;;;;;;;;;;106948;1299;22762;-77
2022/12/09 13:03:50;;;;;;;78.00;37.80;;;;;;;;;;106688;1309;22072;-77
2022/12/09 13:06:19;;;;;;;55.40;26.30;;;;;;;;;;106720;1306;22068;-77
2022/12/09 13:08:52;;;;;;;63.50;27.10;;;;;;;;;;106911;1306;22109;-77
2022/12/09 13:11:25;;;;;;;45.80;19.00;;;;;;;;;;106736;1306;22112;-77
2022/12/09 13:13:54;;;;;;;35.40;17.00;;;;;;;;;;106718;1306;22123;-78
2022/12/09 13:16:30;;;;;;;38.10;18.30;;;;;;;;;;106944;1299;22317;-77
2022/12/09 13:19:15;;;;;;;37.10;17.00;;;;;;;;;;106620;1309;22730;-77
2022/12/09 13:21:44;;;;;;;36.80;17.10;;;;;;;;;;106854;1301;21940;-77
2022/12/09 13:24:28;;;;;;;38.10;16.40;;;;;;;;;;106717;1309;22029;-77
2022/12/09 13:26:58;;;;;;;35.00;16.30;;;;;;;;;;106870;1305;21948;-77
2022/12/09 13:29:29;;;;;;;37.40;16.60;;;;;;;;;;106972;1302;21687;-77
2022/12/09 13:31:55;;;;;;;40.60;16.60;;;;;;;;;;106841;1306;22056;-77
2022/12/09 13:34:27;;;;;;;35.30;15.80;;;;;;;;;;106911;1306;23225;-77
2022/12/09 13:36:54;;;;;;;31.50;15.20;;;;;;;;;;106877;1307;22351;-77
2022/12/09 13:39:39;;;;;;;33.90;15.90;;;;;;;;;;106719;1308;22641;-77
2022/12/09 13:45:20;;;;;;;35.50;14.60;;;;;;;;;;107083;1294;21960;-77
2022/12/09 13:47:46;;;;;;;30.40;14.80;;;;;;;;;;106839;1306;22060;-77
2022/12/09 13:50:26;;;;;;;35.20;15.50;;;;;;;;;;106745;1307;22519;-77
2022/12/09 13:52:58;;;;;;;33.60;15.00;;;;;;;;;;106815;1307;22560;-77
2022/12/09 13:55:31;;;;;;;29.40;13.90;;;;;;;;;;106782;1309;22059;-77
2022/12/09 13:58:06;;;;;;;31.70;14.20;;;;;;;;;;106630;1310;22052;-77
2022/12/09 14:00:33;;;;;;;30.60;14.60;;;;;;;;;;106694;1309;22679;-77
2022/12/09 14:03:03;;;;;;;30.90;15.50;;;;;;;;;;106742;1300;22046;-77
2022/12/09 14:05:30;;;;;;;30.20;14.70;;;;;;;;;;106766;1308;22103;-77
2022/12/09 14:08:05;;;;;;;32.40;15.00;;;;;;;;;;106746;1308;22801;-77
2022/12/09 14:10:36;;;;;;;30.40;15.00;;;;;;;;;;106968;1294;22000;-77
2022/12/09 14:13:17;;;;;;;31.70;14.90;;;;;;;;;;106804;1309;22518;-77
2022/12/09 14:15:46;;;;;;;30.30;15.20;;;;;;;;;;106707;1309;22056;-77
2022/12/09 14:18:28;;;;;;;31.80;15.40;;;;;;;;;;106712;1301;22102;-76
2022/12/09 14:21:24;;;;;;;38.30;16.90;;;;;;;;;;106717;1309;21755;-77
2022/12/09 14:24:06;;;;;;;38.00;16.50;;;;;;;;;;106623;1309;22743;-77
2022/12/09 14:26:43;;;;;;;46.40;17.60;;;;;;;;;;106757;1302;22284;-77